createdAt,value
2022-08-26T00:00:53.724Z,18.3
2022-08-26T00:02:54.746Z,18.38
2022-08-26T00:04:56.370Z,18.5
2022-08-26T00:06:57.895Z,18.54
2022-08-26T00:08:58.938Z,18.56
2022-08-26T00:11:00.122Z,18.49
2022-08-26T00:13:01.188Z,18.47
2022-08-26T00:15:02.671Z,18.61
2022-08-26T00:17:03.999Z,18.59
2022-08-26T00:19:05.469Z,18.6
2022-08-26T00:21:07.109Z,18.57
2022-08-26T00:25:10.615Z,18.53
2022-08-26T00:27:12.306Z,18.49
2022-08-26T00:29:13.196Z,18.41
2022-08-26T00:31:14.134Z,18.38
2022-08-26T00:33:15.781Z,18.37
2022-08-26T00:35:17.392Z,18.32
2022-08-26T00:37:18.366Z,18.33
2022-08-26T00:39:20.111Z,18.32
2022-08-26T00:41:21.299Z,18.28
2022-08-26T00:43:22.376Z,18.27
2022-08-26T00:45:23.654Z,18.19
2022-08-26T00:47:24.889Z,18.11
2022-08-26T00:49:26.551Z,18.1
2022-08-26T00:51:29.620Z,18.04
2022-08-26T00:53:29.141Z,18
2022-08-26T00:55:34.579Z,18.06
2022-08-26T00:57:31.746Z,18.16
2022-08-26T00:59:33.371Z,18.11
2022-08-26T01:01:34.777Z,18.1
2022-08-26T01:03:36.375Z,18.12
2022-08-26T01:05:38.061Z,18.17
2022-08-26T01:07:39.461Z,18.22
2022-08-26T01:09:40.606Z,18.21
2022-08-26T01:11:42.239Z,18.17
2022-08-26T01:13:43.672Z,18.17
2022-08-26T01:15:45.162Z,18.2
2022-08-26T01:17:46.646Z,18.16
2022-08-26T01:19:48.194Z,18.12
2022-08-26T01:21:49.990Z,18.07
2022-08-26T01:23:51.089Z,18.08
2022-08-26T01:25:52.046Z,18.04
2022-08-26T01:27:53.010Z,18.01
2022-08-26T01:29:54.256Z,17.92
2022-08-26T01:31:55.776Z,17.91
2022-08-26T01:33:56.743Z,17.94
2022-08-26T01:35:58.463Z,17.93
2022-08-26T01:38:00.181Z,17.92
2022-08-26T01:40:01.162Z,17.87
2022-08-26T01:42:03.100Z,17.8
2022-08-26T01:44:04.217Z,17.7
2022-08-26T01:46:05.850Z,17.57
2022-08-26T01:48:07.624Z,17.46
2022-08-26T01:50:09.097Z,17.39
2022-08-26T01:52:10.813Z,17.35
2022-08-26T01:54:13.814Z,17.33
2022-08-26T01:56:13.830Z,17.36
2022-08-26T01:58:15.072Z,17.46
2022-08-26T02:00:16.940Z,17.43
2022-08-26T02:02:18.388Z,17.55
2022-08-26T02:04:19.813Z,17.63
2022-08-26T02:06:20.932Z,17.6
2022-08-26T02:08:24.972Z,17.61
2022-08-26T02:10:24.484Z,17.59
2022-08-26T02:12:26.163Z,17.57
2022-08-26T02:14:27.151Z,17.52
2022-08-26T02:16:28.110Z,17.45
2022-08-26T02:18:29.641Z,17.38
2022-08-26T02:19:16.839Z,17.35
2022-08-26T02:21:14.484Z,17.42
2022-08-26T02:23:15.771Z,17.46
2022-08-26T02:25:17.173Z,17.48
2022-08-26T02:27:18.522Z,17.49
2022-08-26T02:29:19.845Z,17.41
2022-08-26T02:31:21.243Z,17.39
2022-08-26T02:33:23.078Z,17.35
2022-08-26T02:35:24.093Z,17.33
2022-08-26T02:37:25.003Z,17.32
2022-08-26T02:39:26.648Z,17.27
2022-08-26T02:41:28.254Z,17.25
2022-08-26T02:43:31.244Z,17.21
2022-08-26T02:45:31.288Z,17.12
2022-08-26T02:47:32.361Z,17.09
2022-08-26T02:49:34.074Z,17.02
2022-08-26T02:51:35.248Z,16.97
2022-08-26T02:53:36.760Z,16.96
2022-08-26T02:55:37.936Z,16.95
2022-08-26T02:57:39.154Z,16.86
2022-08-26T02:59:40.625Z,16.85
2022-08-26T03:01:42.239Z,16.91
2022-08-26T03:03:43.083Z,16.89
2022-08-26T03:05:44.934Z,16.99
2022-08-26T03:07:46.217Z,17
2022-08-26T03:09:47.806Z,16.99
2022-08-26T03:11:49.225Z,16.95
2022-08-26T03:13:50.396Z,16.98
2022-08-26T03:15:51.720Z,17.01
2022-08-26T03:17:53.478Z,16.98
2022-08-26T03:19:57.178Z,16.95
2022-08-26T03:21:57.681Z,16.88
2022-08-26T03:23:58.598Z,16.82
2022-08-26T03:25:59.379Z,16.78
2022-08-26T03:28:00.684Z,16.77
2022-08-26T03:30:01.935Z,16.74
2022-08-26T03:32:03.332Z,16.81
2022-08-26T03:34:04.914Z,16.77
2022-08-26T03:36:05.952Z,16.78
2022-08-26T03:38:07.690Z,16.79
2022-08-26T03:40:08.863Z,16.78
2022-08-26T03:42:10.704Z,16.77
2022-08-26T03:44:11.549Z,16.74
2022-08-26T03:46:12.631Z,16.65
2022-08-26T03:48:13.485Z,16.58
2022-08-26T03:50:14.960Z,16.55
2022-08-26T03:52:16.492Z,16.47
2022-08-26T03:54:17.916Z,16.38
2022-08-26T03:56:19.086Z,16.35
2022-08-26T03:58:20.464Z,16.32
2022-08-26T04:00:21.403Z,16.27
2022-08-26T04:02:23.009Z,16.21
2022-08-26T04:04:24.692Z,16.11
2022-08-26T04:06:25.801Z,16.08
2022-08-26T04:08:28.083Z,16.09
2022-08-26T04:10:29.504Z,16.04
2022-08-26T04:12:30.084Z,16.01
2022-08-26T04:14:31.336Z,15.94
2022-08-26T04:16:32.373Z,16.01
2022-08-26T04:18:36.939Z,15.89
2022-08-26T04:20:43.444Z,15.81
2022-08-26T04:22:36.404Z,15.85
2022-08-26T04:24:37.685Z,15.99
2022-08-26T04:26:39.313Z,15.92
2022-08-26T04:28:40.293Z,15.97
2022-08-26T04:30:42.183Z,15.96
2022-08-26T04:32:43.899Z,15.9
2022-08-26T04:34:45.053Z,15.86
2022-08-26T04:36:46.021Z,15.96
2022-08-26T04:38:47.203Z,16.04
2022-08-26T04:40:48.215Z,16.08
2022-08-26T04:42:49.367Z,16.04
2022-08-26T04:44:50.305Z,16.04
2022-08-26T04:46:51.767Z,16.09
2022-08-26T04:48:53.353Z,16.12
2022-08-26T04:50:55.041Z,16.11
2022-08-26T04:52:56.154Z,16.09
2022-08-26T04:54:57.518Z,16.09
2022-08-26T04:56:58.469Z,16.12
2022-08-26T04:58:59.710Z,16.25
2022-08-26T05:01:01.326Z,16.36
2022-08-26T05:03:02.483Z,16.52
2022-08-26T05:05:03.980Z,16.56
2022-08-26T05:07:05.524Z,16.6
2022-08-26T05:09:07.360Z,16.63
2022-08-26T05:11:08.273Z,16.56
2022-08-26T05:13:10.766Z,16.64
2022-08-26T05:15:10.888Z,16.7
2022-08-26T05:17:14.823Z,16.81
2022-08-26T05:19:13.571Z,17.01
2022-08-26T05:21:14.570Z,17.35
2022-08-26T05:23:23.930Z,17.62
2022-08-26T05:25:16.997Z,17.88
2022-08-26T05:27:18.435Z,17.81
2022-08-26T05:29:19.292Z,17.78
2022-08-26T05:31:20.443Z,17.92
2022-08-26T05:33:21.621Z,18.12
2022-08-26T05:35:22.961Z,18.34
2022-08-26T05:37:24.202Z,18.28
2022-08-26T05:39:25.807Z,18.21
2022-08-26T05:41:27.396Z,18.38
2022-08-26T05:43:28.615Z,18.8
2022-08-26T05:45:30.177Z,19.11
2022-08-26T05:47:31.160Z,19.34
2022-08-26T05:49:32.897Z,19.61
2022-08-26T05:51:33.943Z,20.23
2022-08-26T05:53:35.736Z,20.81
2022-08-26T05:55:37.138Z,20.96
2022-08-26T05:57:42.350Z,21.33
2022-08-26T05:59:39.078Z,20.57
2022-08-26T06:03:41.274Z,20.78
2022-08-26T06:05:42.661Z,21.17
2022-08-26T06:07:44.024Z,21.3
2022-08-26T06:09:45.650Z,21.6
2022-08-26T06:11:46.632Z,21.02
2022-08-26T06:13:47.582Z,21.05
2022-08-26T06:15:49.147Z,21.6
2022-08-26T06:17:50.183Z,21.4
2022-08-26T06:19:51.263Z,21.18
2022-08-26T06:21:54.267Z,21.1
2022-08-26T06:23:54.705Z,21.33
2022-08-26T06:25:55.961Z,21.29
2022-08-26T06:27:57.494Z,21.57
2022-08-26T06:29:58.449Z,21.37
2022-08-26T06:31:59.521Z,21.64
2022-08-26T06:34:01.870Z,22
2022-08-26T06:36:02.659Z,22.23
2022-08-26T06:38:04.196Z,22.38
2022-08-26T06:40:05.337Z,22.49
2022-08-26T06:42:06.416Z,22.1
2022-08-26T06:44:08.045Z,21.97
2022-08-26T06:46:09.543Z,22.02
2022-08-26T06:48:11.112Z,21.93
2022-08-26T06:50:12.502Z,21.92
2022-08-26T06:52:13.642Z,21.97
2022-08-26T06:54:14.911Z,21.76
2022-08-26T06:56:16.375Z,22.24
2022-08-26T06:58:17.879Z,22.75
2022-08-26T07:00:19.398Z,22.61
2022-08-26T07:02:20.718Z,22.6
2022-08-26T07:04:22.265Z,22.87
2022-08-26T07:06:22.535Z,22.97
2022-08-26T07:08:24.256Z,22.44
2022-08-26T07:10:25.891Z,22.36
2022-08-26T07:12:27.413Z,22.61
2022-08-26T07:14:28.808Z,22.5
2022-08-26T07:16:30.178Z,22.85
2022-08-26T07:18:31.776Z,22.84
2022-08-26T07:20:32.700Z,23.34
2022-08-26T07:22:34.350Z,23.25
2022-08-26T07:24:35.533Z,23.78
2022-08-26T07:26:36.799Z,24.27
2022-08-26T07:28:37.641Z,24.78
2022-08-26T07:30:39.093Z,24.54
2022-08-26T07:32:40.688Z,24.86
2022-08-26T07:34:42.415Z,25.25
2022-08-26T07:36:43.589Z,25.69
2022-08-26T07:38:44.606Z,25.08
2022-08-26T07:40:46.313Z,25.04
2022-08-26T07:42:47.148Z,25.37
2022-08-26T07:44:48.854Z,25.71
2022-08-26T07:46:51.311Z,25.6
2022-08-26T07:48:51.456Z,25.94
2022-08-26T07:50:53.096Z,26.61
2022-08-26T07:52:54.300Z,26.65
2022-08-26T07:54:56.019Z,26.47
2022-08-26T07:56:57.109Z,26.25
2022-08-26T07:58:58.868Z,26.14
2022-08-26T08:00:59.906Z,26.38
2022-08-26T08:03:00.824Z,26.36
2022-08-26T08:05:02.225Z,26.75
2022-08-26T08:07:03.774Z,26.59
2022-08-26T08:09:04.720Z,26.27
2022-08-26T08:11:06.347Z,26.89
2022-08-26T08:13:08.013Z,27
2022-08-26T08:15:08.774Z,27.51
2022-08-26T08:19:11.058Z,27.34
2022-08-26T08:21:21.482Z,27.17
2022-08-26T08:23:13.638Z,27.36
2022-08-26T08:25:15.135Z,28.1
2022-08-26T08:27:18.105Z,27.95
2022-08-26T08:29:18.247Z,27.77
2022-08-26T08:31:33.191Z,28.24
2022-08-26T08:33:21.422Z,28.11
2022-08-26T08:35:22.872Z,27.74
2022-08-26T08:37:24.536Z,27.88
2022-08-26T08:39:25.316Z,27.83
2022-08-26T08:41:26.774Z,27.76
2022-08-26T08:43:28.191Z,27.06
2022-08-26T08:45:31.290Z,26.94
2022-08-26T08:47:30.444Z,27
2022-08-26T08:49:31.603Z,27.16
2022-08-26T08:51:32.813Z,27.31
2022-08-26T08:53:34.118Z,27.03
2022-08-26T08:55:35.129Z,27.09
2022-08-26T08:57:36.368Z,27.08
2022-08-26T08:59:38.250Z,27.32
2022-08-26T09:01:38.973Z,27.53
2022-08-26T09:03:39.811Z,27.69
2022-08-26T09:04:23.458Z,27.58
2022-08-26T09:06:24.763Z,27.52
2022-08-26T09:08:26.252Z,27.85
2022-08-26T09:10:27.831Z,27.58
2022-08-26T09:12:29.571Z,27.45
2022-08-26T09:14:30.527Z,27.72
2022-08-26T09:16:31.478Z,28.26
2022-08-26T09:18:33.137Z,28.36
2022-08-26T09:20:34.095Z,28.68
2022-08-26T09:22:35.022Z,28.64
2022-08-26T09:24:39.614Z,28.89
2022-08-26T09:26:37.431Z,29.51
2022-08-26T09:28:38.854Z,29.67
2022-08-26T09:30:40.124Z,29.48
2022-08-26T09:32:41.009Z,29.5
2022-08-26T09:34:42.034Z,29.05
2022-08-26T09:36:43.353Z,29.78
2022-08-26T09:40:45.936Z,30.03
2022-08-26T09:42:46.935Z,29.65
2022-08-26T09:44:47.918Z,29.59
2022-08-26T09:46:49.536Z,29.4
2022-08-26T09:48:51.735Z,29.86
2022-08-26T09:50:51.889Z,30.24
2022-08-26T09:52:52.866Z,29.57
2022-08-26T09:54:53.823Z,29.19
2022-08-26T09:56:54.909Z,29.09
2022-08-26T09:58:56.314Z,29.12
2022-08-26T10:00:57.204Z,28.77
2022-08-26T10:02:58.349Z,28.51
2022-08-26T10:05:08.933Z,28.37
2022-08-26T10:07:01.220Z,28.12
2022-08-26T10:09:08.384Z,28.17
2022-08-26T10:11:03.680Z,28.2
2022-08-26T10:13:04.720Z,27.99
2022-08-26T10:15:05.883Z,27.87
2022-08-26T10:17:07.404Z,27.85
2022-08-26T10:19:09.069Z,27.98
2022-08-26T10:21:10.047Z,28.09
2022-08-26T10:23:11.347Z,28.22
2022-08-26T10:25:12.172Z,28.3
2022-08-26T10:27:13.357Z,28.19
2022-08-26T10:29:14.156Z,28.14
2022-08-26T10:31:15.326Z,28.07
2022-08-26T10:33:17.887Z,28.16
2022-08-26T10:35:18.187Z,28.35
2022-08-26T10:37:19.761Z,28.62
2022-08-26T10:39:21.403Z,28.88
2022-08-26T10:41:22.637Z,28.95
2022-08-26T10:43:25.538Z,28.96
2022-08-26T10:45:25.111Z,28.82
2022-08-26T10:47:26.655Z,28.91
2022-08-26T10:49:27.631Z,28.86
2022-08-26T10:51:29.252Z,29.26
2022-08-26T10:53:32.607Z,29.38
2022-08-26T10:55:31.233Z,29.62
2022-08-26T10:57:32.419Z,30.36
2022-08-26T10:59:33.925Z,30.38
2022-08-26T11:03:36.447Z,30.29
2022-08-26T11:05:37.883Z,29.64
2022-08-26T11:07:38.749Z,29.91
2022-08-26T11:09:40.037Z,29.75
2022-08-26T11:11:41.292Z,29.27
2022-08-26T11:13:42.819Z,28.81
2022-08-26T11:15:44.452Z,29
2022-08-26T11:17:45.395Z,29.08
2022-08-26T11:20:00.034Z,28.83
2022-08-26T11:21:49.455Z,28.7
2022-08-26T11:23:50.298Z,28.5
2022-08-26T11:25:50.227Z,28.51
2022-08-26T11:27:51.921Z,28.38
2022-08-26T11:29:53.348Z,28.32
2022-08-26T11:31:54.420Z,28.23
2022-08-26T11:33:55.915Z,28.1
2022-08-26T11:35:57.543Z,28.26
2022-08-26T11:37:58.507Z,28.27
2022-08-26T11:39:59.390Z,28.28
2022-08-26T11:42:01.017Z,28.42
2022-08-26T11:44:02.582Z,28.49
2022-08-26T11:46:04.229Z,28.51
2022-08-26T11:48:04.787Z,28.04
2022-08-26T11:50:05.641Z,28.33
2022-08-26T11:52:06.460Z,28.37
2022-08-26T11:54:07.764Z,28.25
2022-08-26T11:56:09.188Z,28.25
2022-08-26T11:58:11.116Z,28.35
2022-08-26T12:00:13.111Z,28.3
2022-08-26T12:02:14.240Z,28.48
2022-08-26T12:04:15.331Z,28.64
2022-08-26T12:06:16.981Z,28.47
2022-08-26T12:08:18.120Z,28.59
2022-08-26T12:10:19.149Z,28.41
2022-08-26T12:12:20.541Z,28.79
2022-08-26T12:14:21.938Z,28.7
2022-08-26T12:16:23.027Z,29.02
2022-08-26T12:18:29.068Z,29.4
2022-08-26T12:20:25.159Z,29.86
2022-08-26T12:22:26.278Z,29.6
2022-08-26T12:24:27.896Z,29.78
2022-08-26T12:26:29.305Z,30.35
2022-08-26T12:28:30.929Z,30.22
2022-08-26T12:30:31.691Z,30.21
2022-08-26T12:34:34.172Z,30.27
2022-08-26T12:36:35.087Z,30.91
2022-08-26T12:38:35.997Z,30.8
2022-08-26T12:40:37.112Z,30.42
2022-08-26T12:42:38.205Z,30.09
2022-08-26T12:44:39.354Z,30.99
2022-08-26T12:46:40.180Z,31.16
2022-08-26T12:48:41.596Z,31.05
2022-08-26T12:50:42.537Z,30.63
2022-08-26T12:52:43.849Z,30.31
2022-08-26T12:54:45.196Z,30.32
2022-08-26T12:56:46.814Z,30.35
2022-08-26T12:58:48.451Z,30.34
2022-08-26T13:00:49.673Z,29.9
2022-08-26T13:02:50.761Z,29.71
2022-08-26T13:04:51.800Z,29.57
2022-08-26T13:06:52.840Z,29.39
2022-08-26T13:08:54.583Z,29.15
2022-08-26T13:10:55.827Z,29
2022-08-26T13:12:57.360Z,28.99
2022-08-26T13:14:58.627Z,28.47
2022-08-26T13:16:59.903Z,28.3
2022-08-26T13:19:00.726Z,28.34
2022-08-26T13:21:02.147Z,28.41
2022-08-26T13:23:02.955Z,28.06
2022-08-26T13:25:04.231Z,28.13
2022-08-26T13:27:06.014Z,28.07
2022-08-26T13:29:10.102Z,28.03
2022-08-26T13:31:08.351Z,28.19
2022-08-26T13:33:12.164Z,27.57
2022-08-26T13:35:11.349Z,27.85
2022-08-26T13:37:12.252Z,28.04
2022-08-26T13:39:13.082Z,27.99
2022-08-26T13:41:13.857Z,28.25
2022-08-26T13:43:15.381Z,27.9
2022-08-26T13:45:16.697Z,27.58
2022-08-26T13:47:17.818Z,28.07
2022-08-26T13:49:19.283Z,27.85
2022-08-26T13:51:20.454Z,27.87
2022-08-26T13:53:21.453Z,27.67
2022-08-26T13:55:22.749Z,27.67
2022-08-26T13:57:24.027Z,27.58
2022-08-26T13:59:25.276Z,27.36
2022-08-26T14:01:26.763Z,27.63
2022-08-26T14:03:28.525Z,27.59
2022-08-26T14:05:29.368Z,27.63
2022-08-26T14:07:30.912Z,27.55
2022-08-26T14:09:35.421Z,27.64
2022-08-26T14:11:41.122Z,27.64
2022-08-26T14:13:35.434Z,27.55
2022-08-26T14:15:36.976Z,27.51
2022-08-26T14:17:37.911Z,27.6
2022-08-26T14:19:39.481Z,27.68
2022-08-26T14:21:40.413Z,27.62
2022-08-26T14:23:41.283Z,27.51
2022-08-26T14:25:42.765Z,27.38
2022-08-26T14:27:44.493Z,27.6
2022-08-26T14:29:45.697Z,27.51
2022-08-26T14:31:47.058Z,27.33
2022-08-26T14:33:48.341Z,27.31
2022-08-26T14:35:49.819Z,27.14
2022-08-26T14:37:50.395Z,26.88
2022-08-26T14:39:51.213Z,27.07
2022-08-26T14:41:54.233Z,26.86
2022-08-26T14:43:53.521Z,26.92
2022-08-26T14:45:55.153Z,26.89
2022-08-26T14:47:56.313Z,26.62
2022-08-26T14:49:58.017Z,26.56
2022-08-26T14:51:59.429Z,26.64
2022-08-26T14:54:01.263Z,26.49
2022-08-26T14:56:02.317Z,26.54
2022-08-26T14:58:03.728Z,26.47
2022-08-26T15:00:05.332Z,26.34
2022-08-26T15:02:06.674Z,26.44
2022-08-26T15:04:07.608Z,26.61
2022-08-26T15:06:09.417Z,26.63
2022-08-26T15:08:10.610Z,26.37
2022-08-26T15:10:11.234Z,26.35
2022-08-26T15:12:12.217Z,26.28
2022-08-26T15:14:14.860Z,26.23
2022-08-26T15:16:14.901Z,26.2
2022-08-26T15:18:16.154Z,26.29
2022-08-26T15:20:17.392Z,26.28
2022-08-26T15:22:18.549Z,26.1
2022-08-26T15:24:20.030Z,26
2022-08-26T15:26:21.305Z,25.99
2022-08-26T15:28:22.316Z,25.88
2022-08-26T15:30:23.726Z,25.78
2022-08-26T15:32:24.963Z,25.79
2022-08-26T15:34:26.496Z,25.78
2022-08-26T15:36:27.859Z,25.86
2022-08-26T15:38:29.639Z,26.09
2022-08-26T15:40:31.386Z,26.31
2022-08-26T15:42:33.035Z,26.36
2022-08-26T15:44:34.317Z,26.41
2022-08-26T15:46:35.854Z,26.4
2022-08-26T15:48:36.909Z,26.53
2022-08-26T15:50:38.468Z,26.54
2022-08-26T15:51:22.190Z,26.59
2022-08-26T15:53:23.026Z,26.44
2022-08-26T15:55:24.051Z,26.6
2022-08-26T15:57:25.228Z,26.59
2022-08-26T15:59:26.562Z,26.55
2022-08-26T16:01:28.035Z,26.55
2022-08-26T16:03:29.104Z,26.52
2022-08-26T16:05:30.175Z,26.45
2022-08-26T16:07:31.574Z,26.46
2022-08-26T16:09:33.225Z,26.52
2022-08-26T16:11:34.033Z,26.49
2022-08-26T16:13:39.564Z,26.5
2022-08-26T16:15:36.122Z,26.51
2022-08-26T16:17:37.708Z,26.51
2022-08-26T16:19:39.398Z,26.46
2022-08-26T16:21:40.536Z,26.46
2022-08-26T16:23:43.241Z,26.38
2022-08-26T16:25:42.995Z,26.44
2022-08-26T16:27:43.861Z,26.36
2022-08-26T16:29:44.833Z,26.35
2022-08-26T16:31:45.877Z,26.34
2022-08-26T16:33:47.435Z,26.34
2022-08-26T16:35:48.362Z,26.37
2022-08-26T16:37:49.424Z,26.39
2022-08-26T16:39:50.571Z,26.42
2022-08-26T16:41:52.276Z,26.39
2022-08-26T16:43:53.918Z,26.42
2022-08-26T16:45:55.600Z,26.45
2022-08-26T16:47:56.524Z,26.38
2022-08-26T16:49:57.687Z,26.38
2022-08-26T16:51:59.396Z,26.38
2022-08-26T16:54:01.187Z,26.25
2022-08-26T16:56:02.877Z,26.27
2022-08-26T16:58:04.534Z,26.24
2022-08-26T17:00:05.587Z,26.23
2022-08-26T17:02:07.249Z,26.21
2022-08-26T17:04:08.917Z,26.16
2022-08-26T17:06:09.893Z,26.16
2022-08-26T17:08:11.101Z,25.46
2022-08-26T17:10:11.737Z,25.09
2022-08-26T17:12:12.642Z,25.02
2022-08-26T17:14:14.012Z,25.03
2022-08-26T17:16:15.145Z,25.35
2022-08-26T17:18:16.108Z,25.55
2022-08-26T17:20:17.175Z,25.54
2022-08-26T17:22:18.268Z,25.48
2022-08-26T17:24:19.519Z,25.31
2022-08-26T17:26:21.223Z,25.13
2022-08-26T17:28:22.943Z,25.07
2022-08-26T17:32:25.850Z,24.83
2022-08-26T17:34:27.472Z,24.7
2022-08-26T17:36:28.687Z,24.63
2022-08-26T17:38:30.415Z,24.55
2022-08-26T17:40:31.494Z,24.51
2022-08-26T17:42:32.296Z,24.41
2022-08-26T17:44:33.579Z,24.36
2022-08-26T17:46:37.816Z,24.34
2022-08-26T17:48:36.468Z,24.33
2022-08-26T17:50:37.996Z,24.28
2022-08-26T17:52:39.296Z,24.19
2022-08-26T17:54:40.176Z,24.08
2022-08-26T17:56:41.886Z,24.02
2022-08-26T17:58:48.103Z,23.96
2022-08-26T18:00:44.383Z,23.91
2022-08-26T18:02:46.125Z,23.99
2022-08-26T18:04:47.945Z,24.09
2022-08-26T18:06:48.974Z,24.06
2022-08-26T18:08:50.404Z,24.04
2022-08-26T18:10:51.475Z,24.02
2022-08-26T18:12:52.913Z,24
2022-08-26T18:14:53.977Z,23.93
2022-08-26T18:16:55.249Z,23.89
2022-08-26T18:18:56.961Z,23.88
2022-08-26T18:21:01.251Z,23.81
2022-08-26T18:22:59.809Z,23.71
2022-08-26T18:25:01.490Z,23.65
2022-08-26T18:27:02.784Z,23.62
2022-08-26T18:29:04.269Z,23.58
2022-08-26T18:31:05.828Z,23.53
2022-08-26T18:33:07.310Z,23.4
2022-08-26T18:35:08.811Z,23.31
2022-08-26T18:39:11.830Z,22.54
2022-08-26T18:41:12.883Z,21.91
2022-08-26T18:43:14.151Z,21.02
2022-08-26T18:45:16.105Z,20.64
2022-08-26T18:47:16.377Z,20.42
2022-08-26T18:49:17.898Z,20.22
2022-08-26T18:51:18.834Z,20.27
2022-08-26T18:53:20.001Z,20.08
2022-08-26T18:55:20.899Z,20.08
2022-08-26T18:57:22.597Z,19.94
2022-08-26T18:59:28.486Z,19.74
2022-08-26T19:01:27.515Z,19.63
2022-08-26T19:03:26.259Z,19.64
2022-08-26T19:05:28.061Z,19.73
2022-08-26T19:07:29.283Z,19.53
2022-08-26T19:09:30.870Z,19.35
2022-08-26T19:11:37.342Z,19.35
2022-08-26T19:13:32.688Z,19.5
2022-08-26T19:15:33.804Z,19.54
2022-08-26T19:17:35.153Z,19.53
2022-08-26T19:19:36.472Z,19.55
2022-08-26T19:21:37.933Z,19.66
2022-08-26T19:23:39.609Z,19.33
2022-08-26T19:25:40.899Z,19.13
2022-08-26T19:27:42.156Z,18.93
2022-08-26T19:29:43.916Z,18.88
2022-08-26T19:31:44.989Z,19.08
2022-08-26T19:33:46.040Z,19.06
2022-08-26T19:35:47.670Z,19.55
2022-08-26T19:37:48.622Z,19.74
2022-08-26T19:39:49.741Z,19.34
2022-08-26T19:41:51.490Z,19.24
2022-08-26T19:43:53.159Z,19.23
2022-08-26T19:45:54.637Z,19.05
2022-08-26T19:47:56.048Z,18.92
2022-08-26T19:49:57.451Z,18.81
2022-08-26T19:51:59.303Z,18.83
2022-08-26T19:54:00.623Z,18.8
2022-08-26T19:56:01.993Z,18.84
2022-08-26T19:58:03.609Z,18.81
2022-08-26T20:00:05.038Z,18.77
2022-08-26T20:02:10.107Z,18.62
2022-08-26T20:04:08.186Z,18.64
2022-08-26T20:06:09.102Z,18.5
2022-08-26T20:08:11.047Z,18.42
2022-08-26T20:10:12.033Z,18.35
2022-08-26T20:12:13.792Z,18.3
2022-08-26T20:14:16.258Z,18.27
2022-08-26T20:16:17.087Z,18.28
2022-08-26T20:18:18.825Z,18.25
2022-08-26T20:20:33.633Z,18.13
2022-08-26T20:22:20.681Z,17.98
2022-08-26T20:24:21.608Z,17.93
2022-08-26T20:26:22.782Z,17.83
2022-08-26T20:28:24.175Z,17.79
2022-08-26T20:30:25.388Z,17.81
2022-08-26T20:32:27.118Z,17.74
2022-08-26T20:34:28.278Z,17.72
2022-08-26T20:36:29.332Z,17.66
2022-08-26T20:38:30.510Z,17.66
2022-08-26T20:40:32.021Z,17.6
2022-08-26T20:42:32.881Z,17.62
2022-08-26T20:44:34.250Z,17.65
2022-08-26T20:46:35.870Z,17.62
2022-08-26T20:48:37.308Z,17.64
2022-08-26T20:50:38.920Z,17.7
2022-08-26T20:52:40.574Z,17.65
2022-08-26T20:54:42.245Z,17.57
2022-08-26T20:56:43.178Z,17.61
2022-08-26T20:58:44.390Z,17.61
2022-08-26T21:00:46.306Z,17.64
2022-08-26T21:02:47.775Z,17.58
2022-08-26T21:04:48.539Z,17.56
2022-08-26T21:06:52.521Z,17.56
2022-08-26T21:08:51.218Z,17.72
2022-08-26T21:10:53.058Z,17.72
2022-08-26T21:12:54.878Z,17.66
2022-08-26T21:14:55.804Z,17.68
2022-08-26T21:16:57.744Z,17.69
2022-08-26T21:19:00.408Z,17.73
2022-08-26T21:21:00.624Z,17.78
2022-08-26T21:23:01.667Z,17.81
2022-08-26T21:25:03.341Z,17.85
2022-08-26T21:27:05.204Z,17.89
2022-08-26T21:29:06.989Z,17.84
2022-08-26T21:31:08.673Z,17.88
2022-08-26T21:33:09.645Z,17.93
2022-08-26T21:35:10.805Z,17.98
2022-08-26T21:37:15.305Z,17.99
2022-08-26T21:39:13.817Z,17.98
2022-08-26T21:41:15.157Z,17.89
2022-08-26T21:43:25.949Z,17.97
2022-08-26T21:45:18.118Z,17.97
2022-08-26T21:47:19.419Z,17.96
2022-08-26T21:49:20.440Z,17.91
2022-08-26T21:51:22.016Z,17.95
2022-08-26T21:53:23.790Z,17.88
2022-08-26T21:55:25.202Z,17.84
2022-08-26T21:57:26.241Z,17.83
2022-08-26T21:59:27.723Z,17.84
2022-08-26T22:01:29.535Z,17.85
2022-08-26T22:03:31.271Z,17.85
2022-08-26T22:05:32.196Z,17.8
2022-08-26T22:07:33.586Z,17.79
2022-08-26T22:09:34.649Z,17.8
2022-08-26T22:11:36.459Z,17.82
2022-08-26T22:13:38.094Z,17.8
2022-08-26T22:15:39.586Z,17.78
2022-08-26T22:17:41.162Z,17.79
2022-08-26T22:19:45.670Z,17.75
2022-08-26T22:21:43.307Z,17.71
2022-08-26T22:23:44.849Z,17.66
2022-08-26T22:25:46.624Z,17.64
2022-08-26T22:27:48.281Z,17.63
2022-08-26T22:29:49.224Z,17.62
2022-08-26T22:31:50.279Z,17.61
2022-08-26T22:33:51.243Z,17.57
2022-08-26T22:35:52.214Z,17.67
2022-08-26T22:36:35.904Z,17.61
2022-08-26T22:38:37.559Z,17.54
2022-08-26T22:40:39.171Z,17.64
2022-08-26T22:42:41.038Z,17.58
2022-08-26T22:44:41.934Z,17.62
2022-08-26T22:46:42.845Z,17.59
2022-08-26T22:48:43.907Z,17.58
2022-08-26T22:50:44.865Z,17.62
2022-08-26T22:52:46.459Z,17.73
2022-08-26T22:54:47.479Z,17.71
2022-08-26T22:56:48.977Z,17.72
2022-08-26T22:58:50.740Z,17.76
2022-08-26T23:00:52.163Z,17.78
2022-08-26T23:02:53.403Z,17.79
2022-08-26T23:04:55.201Z,17.76
2022-08-26T23:06:56.300Z,17.76
2022-08-26T23:08:57.762Z,17.78
2022-08-26T23:10:58.638Z,17.77
2022-08-26T23:13:00.236Z,17.76
2022-08-26T23:15:01.431Z,17.72
2022-08-26T23:17:02.907Z,17.69
2022-08-26T23:19:04.616Z,17.69
2022-08-26T23:21:06.247Z,17.64
2022-08-26T23:23:07.249Z,17.65
2022-08-26T23:25:08.724Z,17.61
2022-08-26T23:27:10.364Z,17.61
2022-08-26T23:29:12.034Z,17.59
2022-08-26T23:31:13.821Z,17.61
2022-08-26T23:33:15.627Z,17.57
2022-08-26T23:35:16.543Z,17.59
2022-08-26T23:37:17.496Z,17.6
2022-08-26T23:39:18.557Z,17.59
2022-08-26T23:41:19.667Z,17.57
2022-08-26T23:43:21.019Z,17.6
2022-08-26T23:45:22.217Z,17.6
2022-08-26T23:47:23.115Z,17.6
2022-08-26T23:49:24.446Z,17.59
2022-08-26T23:51:25.741Z,17.58
2022-08-26T23:53:27.329Z,17.59
2022-08-26T23:55:28.675Z,17.56
2022-08-26T23:57:29.646Z,17.56
2022-08-26T23:59:30.541Z,17.54
